Iwanui, Waitara Historical Data
 
Daily Summary for February 25, 2018 Units:  Metric    English   Both
« Previous Day
Next Day »
Daily Weekly Monthly Yearly Custom
  Current: High: Low: Average:
Temperature: 24.1 °C 25.0 °C 14.4 °C 18.6 °C
Dew Point: 13.7 °C 15.2 °C 10.9 °C 13.5 °C
Humidity: 52% 93% 45% 74%
Wind Speed: 17.2km/h 19.5km/h 0.0km/h 4.8km/h
Wind Gust: 20.9km/h 28.0km/h - -
WindNW - - WNW
Pressure: 1013.4 hPa 1015.8 hPa 1013.4 hPa -
Precipitation: 0.0 mm      
Historical Graphs
 
 
Tabular Data for February 25, 2018
Time Temperature Dew Point Pressure Wind Wind Speed Wind Gust Humidity Rainfall Rate (Hourly)
00:04 15.1 °C 12.8 °C 1015.8 hPa Calm     86% 0.0 mm
00:09 15.0 °C 12.8 °C 1015.8 hPa Calm     87% 0.0 mm
00:14 15.0 °C 12.8 °C 1015.8 hPa Calm     87% 0.0 mm
00:19 14.9 °C 12.9 °C 1015.5 hPa Calm     88% 0.0 mm
00:24 14.9 °C 13.1 °C 1015.5 hPa Calm     89% 0.0 mm
00:29 14.9 °C 13.1 °C 1015.8 hPa Calm     89% 0.0 mm
00:34 15.0 °C 13.2 °C 1015.5 hPa Calm     89% 0.0 mm
00:39 15.1 °C 13.5 °C 1015.5 hPa Calm     90% 0.0 mm
00:44 15.2 °C 13.6 °C 1015.8 hPa Calm     90% 0.0 mm
00:49 15.2 °C 13.6 °C 1015.5 hPa Calm     90% 0.0 mm
00:54 15.2 °C 13.6 °C 1015.5 hPa Calm     90% 0.0 mm
00:59 15.2 °C 13.6 °C 1015.5 hPa Calm     90% 0.0 mm
01:05 15.2 °C 13.6 °C 1015.5 hPa Calm     90% 0.0 mm
01:10 15.7 °C 14.2 °C 1015.5 hPa Calm     91% 0.0 mm
01:15 15.7 °C 14.2 °C 1015.5 hPa Calm     91% 0.0 mm
01:20 15.7 °C 14.2 °C 1015.5 hPa Calm     91% 0.0 mm
01:25 15.7 °C 14.2 °C 1015.5 hPa East 1.1 km/h 2.6 km/h 91% 0.0 mm
01:30 15.7 °C 14.2 °C 1015.5 hPa Calm   2.6 km/h 91% 0.0 mm
01:35 15.8 °C 14.3 °C 1015.5 hPa Calm   2.6 km/h 91% 0.0 mm
01:40 15.8 °C 14.3 °C 1015.5 hPa Calm   2.6 km/h 91% 0.0 mm
01:45 15.7 °C 14.2 °C 1015.1 hPa Calm   2.6 km/h 91% 0.0 mm
01:50 15.7 °C 14.1 °C 1015.1 hPa Calm   2.6 km/h 90% 0.0 mm
01:55 15.2 °C 13.6 °C 1015.1 hPa Calm   2.6 km/h 90% 0.0 mm
02:00 15.2 °C 13.6 °C 1015.1 hPa Calm   2.6 km/h 90% 0.0 mm
02:05 15.2 °C 13.6 °C 1014.8 hPa Calm   1.1 km/h 90% 0.0 mm
02:10 15.2 °C 13.6 °C 1014.8 hPa Calm   2.6 km/h 90% 0.0 mm
02:15 15.2 °C 13.6 °C 1014.8 hPa Calm   2.6 km/h 90% 0.0 mm
02:21 15.2 °C 13.7 °C 1014.8 hPa Calm   1.1 km/h 91% 0.0 mm
02:26 15.2 °C 13.6 °C 1014.8 hPa Calm     90% 0.0 mm
02:31 15.2 °C 13.6 °C 1014.8 hPa Calm     90% 0.0 mm
02:36 15.2 °C 13.6 °C 1014.4 hPa Calm     90% 0.0 mm
02:41 15.2 °C 13.6 °C 1014.4 hPa Calm     90% 0.0 mm
02:46 15.2 °C 13.6 °C 1014.4 hPa Calm     90% 0.0 mm
02:51 15.2 °C 13.6 °C 1014.4 hPa Calm     90% 0.0 mm
02:56 15.1 °C 13.7 °C 1014.4 hPa South 2.6 km/h 3.5 km/h 91% 0.0 mm
03:01 15.1 °C 13.7 °C 1014.4 hPa Calm   3.5 km/h 91% 0.0 mm
03:06 15.2 °C 13.7 °C 1014.8 hPa Calm   3.5 km/h 91% 0.0 mm
03:11 15.2 °C 13.7 °C 1014.8 hPa Calm   1.1 km/h 91% 0.0 mm
03:16 15.2 °C 13.7 °C 1014.4 hPa Calm     91% 0.0 mm
03:21 15.2 °C 13.7 °C 1014.8 hPa Calm     91% 0.0 mm
03:26 15.2 °C 13.7 °C 1014.8 hPa Calm   2.6 km/h 91% 0.0 mm
03:31 15.2 °C 13.7 °C 1014.8 hPa SSE 1.1 km/h 3.5 km/h 91% 0.0 mm
03:36 15.2 °C 13.7 °C 1014.8 hPa Calm   3.5 km/h 91% 0.0 mm
03:41 15.2 °C 13.7 °C 1014.8 hPa Calm   3.5 km/h 91% 0.0 mm
03:46 15.1 °C 13.7 °C 1014.8 hPa Calm   1.1 km/h 91% 0.0 mm
03:51 15.0 °C 13.6 °C 1014.8 hPa Calm   1.1 km/h 91% 0.0 mm
03:56 14.9 °C 13.6 °C 1014.4 hPa Calm   1.1 km/h 92% 0.0 mm
04:01 14.8 °C 13.5 °C 1014.8 hPa Calm   1.1 km/h 92% 0.0 mm
04:06 14.6 °C 13.3 °C 1014.4 hPa Calm   1.1 km/h 92% 0.0 mm
04:12 14.5 °C 13.2 °C 1014.8 hPa Calm     92% 0.0 mm
04:17 14.4 °C 13.1 °C 1014.4 hPa Calm     92% 0.0 mm
04:22 14.4 °C 13.1 °C 1014.4 hPa Calm     92% 0.0 mm
04:27 14.4 °C 13.1 °C 1014.4 hPa Calm     92% 0.0 mm
04:32 14.5 °C 13.2 °C 1014.4 hPa Calm     92% 0.0 mm
04:37 14.6 °C 13.3 °C 1014.4 hPa Calm     92% 0.0 mm
04:42 14.6 °C 13.3 °C 1014.8 hPa Calm     92% 0.0 mm
04:47 14.7 °C 13.4 °C 1014.4 hPa Calm     92% 0.0 mm
04:52 14.8 °C 13.7 °C 1014.4 hPa Calm     93% 0.0 mm
04:57 14.9 °C 13.8 °C 1014.1 hPa Calm     93% 0.0 mm
05:02 14.9 °C 13.8 °C 1014.4 hPa South 1.1 km/h 3.5 km/h 93% 0.0 mm
05:07 14.9 °C 13.8 °C 1014.4 hPa Calm   3.5 km/h 93% 0.0 mm
05:12 15.0 °C 13.7 °C 1014.4 hPa Calm   2.6 km/h 92% 0.0 mm
05:17 15.0 °C 13.7 °C 1014.4 hPa Calm   1.1 km/h 92% 0.0 mm
05:22 15.0 °C 13.7 °C 1014.4 hPa Calm     92% 0.0 mm
05:27 15.0 °C 13.7 °C 1014.1 hPa Calm     92% 0.0 mm
05:32 15.1 °C 13.8 °C 1014.1 hPa Calm     92% 0.0 mm
05:38 15.2 °C 13.9 °C 1014.1 hPa Calm     92% 0.0 mm
05:43 15.2 °C 13.9 °C 1014.1 hPa Calm     92% 0.0 mm
05:48 15.2 °C 13.9 °C 1014.1 hPa Calm     92% 0.0 mm
05:53 15.2 °C 13.9 °C 1014.1 hPa Calm     92% 0.0 mm
05:58 15.2 °C 13.9 °C 1014.1 hPa Calm     92% 0.0 mm
06:03 15.2 °C 13.9 °C 1014.1 hPa Calm   2.6 km/h 92% 0.0 mm
06:08 15.2 °C 14.1 °C 1014.4 hPa Calm   2.6 km/h 93% 0.0 mm
06:13 15.2 °C 14.1 °C 1014.1 hPa Calm   1.1 km/h 93% 0.0 mm
06:18 15.7 °C 14.6 °C 1014.1 hPa Calm   2.6 km/h 93% 0.0 mm
06:23 15.7 °C 14.6 °C 1014.1 hPa Calm   2.6 km/h 93% 0.0 mm
06:28 15.7 °C 14.6 °C 1014.1 hPa West 2.6 km/h 5.0 km/h 93% 0.0 mm
06:33 15.8 °C 14.5 °C 1014.1 hPa West 6.1 km/h 7.2 km/h 92% 0.0 mm
06:38 16.2 °C 14.7 °C 1014.4 hPa West 3.5 km/h 7.2 km/h 91% 0.0 mm
06:43 16.5 °C 14.9 °C 1014.1 hPa West 1.1 km/h 7.2 km/h 90% 0.0 mm
06:48 16.6 °C 14.8 °C 1014.4 hPa Calm   6.1 km/h 89% 0.0 mm
06:53 16.6 °C 14.6 °C 1014.4 hPa Calm   3.5 km/h 88% 0.0 mm
06:58 16.6 °C 14.3 °C 1014.4 hPa Calm   2.6 km/h 86% 0.0 mm
07:03 16.6 °C 14.1 °C 1014.4 hPa Calm     85% 0.0 mm
07:08 16.6 °C 14.1 °C 1014.4 hPa Calm     85% 0.0 mm
07:13 16.6 °C 14.1 °C 1014.4 hPa Calm   1.1 km/h 85% 0.0 mm
07:18 16.6 °C 14.1 °C 1014.4 hPa WSW 3.5 km/h 6.1 km/h 85% 0.0 mm
07:23 16.9 °C 14.4 °C 1014.4 hPa West 1.1 km/h 6.1 km/h 85% 0.0 mm
07:28 17.1 °C 14.4 °C 1014.4 hPa West 2.6 km/h 6.1 km/h 84% 0.0 mm
07:33 17.3 °C 14.4 °C 1014.4 hPa West 3.5 km/h 6.1 km/h 83% 0.0 mm
07:38 17.4 °C 14.3 °C 1014.4 hPa West 5.0 km/h 8.7 km/h 82% 0.0 mm
07:43 17.6 °C 14.1 °C 1014.4 hPa West 6.1 km/h 9.7 km/h 80% 0.0 mm
07:48 17.9 °C 14.0 °C 1014.4 hPa West 3.5 km/h 9.7 km/h 78% 0.0 mm
07:53 17.9 °C 13.6 °C 1014.4 hPa WNW 8.7 km/h 9.7 km/h 76% 0.0 mm
07:58 18.3 °C 13.8 °C 1014.4 hPa West 2.6 km/h 9.7 km/h 75% 0.0 mm
08:03 18.5 °C 14.0 °C 1014.4 hPa WSW 6.1 km/h 9.7 km/h 75% 0.0 mm
08:09 18.7 °C 13.6 °C 1014.8 hPa West 8.7 km/h 14.8 km/h 72% 0.0 mm
08:14 18.9 °C 12.7 °C 1014.4 hPa WNW 5.0 km/h 14.8 km/h 67% 0.0 mm
08:19 19.1 °C 12.4 °C 1014.8 hPa NW 3.5 km/h 14.8 km/h 65% 0.0 mm
08:24 19.2 °C 12.0 °C 1014.4 hPa WNW 7.2 km/h 17.2 km/h 63% 0.0 mm
08:29 19.5 °C 12.1 °C 1014.8 hPa WNW 6.1 km/h 17.2 km/h 62% 0.0 mm
08:34 19.6 °C 12.1 °C 1014.8 hPa WNW 7.2 km/h 13.4 km/h 62% 0.0 mm
08:39 19.7 °C 12.7 °C 1014.8 hPa NW 3.5 km/h 15.8 km/h 64% 0.0 mm
08:44 19.7 °C 12.9 °C 1014.8 hPa WNW 7.2 km/h 15.8 km/h 65% 0.0 mm
08:49 19.7 °C 12.7 °C 1014.8 hPa WNW 6.1 km/h 14.8 km/h 64% 0.0 mm
08:54 19.7 °C 12.4 °C 1014.8 hPa WNW 6.1 km/h 15.8 km/h 63% 0.0 mm
08:59 19.7 °C 12.7 °C 1014.8 hPa NW 7.2 km/h 15.8 km/h 64% 0.0 mm
09:04 19.9 °C 12.2 °C 1014.8 hPa NW 7.2 km/h 15.8 km/h 61% 0.0 mm
09:09 20.0 °C 11.8 °C 1014.8 hPa NW 13.4 km/h 15.8 km/h 59% 0.0 mm
09:14 20.2 °C 12.2 °C 1014.8 hPa WNW 7.2 km/h 15.8 km/h 60% 0.0 mm
09:19 20.2 °C 12.2 °C 1014.8 hPa WNW 2.6 km/h 12.2 km/h 60% 0.0 mm
09:24 20.1 °C 11.6 °C 1014.8 hPa NW 8.7 km/h 15.8 km/h 58% 0.0 mm
09:29 20.2 °C 11.4 °C 1014.8 hPa NW 9.7 km/h 17.2 km/h 57% 0.0 mm
09:34 20.5 °C 11.7 °C 1014.8 hPa NW 8.7 km/h 17.2 km/h 57% 0.0 mm
09:39 20.6 °C 11.3 °C 1014.8 hPa NW 7.2 km/h 17.2 km/h 55% 0.0 mm
09:44 20.9 °C 11.3 °C 1014.8 hPa NW 11.1 km/h 15.8 km/h 54% 0.0 mm
09:49 21.1 °C 11.2 °C 1014.8 hPa NW 7.2 km/h 15.8 km/h 53% 0.0 mm
09:54 21.3 °C 11.3 °C 1014.4 hPa NNW 12.2 km/h 13.4 km/h 53% 0.0 mm
09:59 21.3 °C 11.1 °C 1014.4 hPa NW 7.2 km/h 14.8 km/h 52% 0.0 mm
10:04 21.2 °C 10.9 °C 1014.4 hPa NW 6.1 km/h 14.8 km/h 52% 0.0 mm
10:06 21.2 °C 11.3 °C 1014.4 hPa NW 6.1 km/h 14.8 km/h 53% 0.0 mm
10:12 21.3 °C 11.9 °C 1014.4 hPa NW 5.0 km/h 14.8 km/h 55% 0.0 mm
10:17 21.3 °C 11.6 °C 1014.4 hPa NW 11.1 km/h 17.2 km/h 54% 0.0 mm
10:22 21.0 °C 12.7 °C 1014.8 hPa WNW 8.7 km/h 19.5 km/h 59% 0.0 mm
10:27 20.9 °C 13.3 °C 1014.8 hPa WNW 5.0 km/h 19.5 km/h 62% 0.0 mm
10:29 20.7 °C 13.4 °C 1014.8 hPa WNW 2.6 km/h 18.3 km/h 63% 0.0 mm
10:35 21.0 °C 13.9 °C 1014.8 hPa WNW 8.7 km/h 13.4 km/h 64% 0.0 mm
10:40 21.2 °C 13.9 °C 1014.4 hPa WNW 5.0 km/h 15.8 km/h 63% 0.0 mm
10:45 21.4 °C 13.8 °C 1014.4 hPa West 3.5 km/h 17.2 km/h 62% 0.0 mm
10:50 22.4 °C 14.3 °C 1014.8 hPa WSW 7.2 km/h 19.5 km/h 60% 0.0 mm
10:55 21.7 °C 13.6 °C 1014.8 hPa West 7.2 km/h 19.5 km/h 60% 0.0 mm
11:00 22.1 °C 13.7 °C 1014.8 hPa WNW 8.7 km/h 19.5 km/h 59% 0.0 mm
11:02 22.7 °C 14.1 °C 1014.8 hPa WNW 9.7 km/h 19.5 km/h 58% 0.0 mm
11:07 23.8 °C 14.5 °C 1014.8 hPa WNW 9.7 km/h 19.5 km/h 56% 0.0 mm
11:12 24.6 °C 14.1 °C 1014.4 hPa WNW 11.1 km/h 20.9 km/h 52% 0.0 mm
11:17 23.6 °C 11.7 °C 1014.8 hPa WNW 9.7 km/h 20.9 km/h 47% 0.0 mm
11:22 23.7 °C 12.4 °C 1014.4 hPa NW 11.1 km/h 19.5 km/h 49% 0.0 mm
11:25 23.7 °C 12.1 °C 1014.4 hPa NNW 8.7 km/h 19.5 km/h 48% 0.0 mm
11:30 24.3 °C 13.2 °C 1014.4 hPa NW 9.7 km/h 19.5 km/h 50% 0.0 mm
11:35 24.7 °C 12.3 °C 1014.4 hPa WNW 14.8 km/h 20.9 km/h 46% 0.0 mm
11:40 23.8 °C 11.5 °C 1014.4 hPa NW 19.5 km/h 24.5 km/h 46% 0.0 mm
11:44 23.6 °C 11.7 °C 1014.4 hPa NW 12.2 km/h 24.5 km/h 47% 0.0 mm
11:49 24.2 °C 11.9 °C 1014.4 hPa NW 13.4 km/h 24.5 km/h 46% 0.0 mm
11:54 23.9 °C 11.6 °C 1014.4 hPa NW 13.4 km/h 21.9 km/h 46% 0.0 mm
11:57 24.0 °C 11.7 °C 1014.4 hPa NW 15.8 km/h 21.9 km/h 46% 0.0 mm
12:02 24.1 °C 11.8 °C 1014.4 hPa NW 12.2 km/h 24.5 km/h 46% 0.0 mm
12:07 24.4 °C 12.4 °C 1014.4 hPa NW 19.5 km/h 28.0 km/h 47% 0.0 mm
12:12 24.6 °C 11.9 °C 1014.1 hPa NW 13.4 km/h 28.0 km/h 45% 0.0 mm
12:17 25.0 °C 13.2 °C 1014.1 hPa NW 14.8 km/h 28.0 km/h 48% 0.0 mm
12:22 24.8 °C 14.0 °C 1014.1 hPa NW 12.2 km/h 25.6 km/h 51% 0.0 mm
12:27 24.6 °C 14.1 °C 1014.1 hPa NW 12.2 km/h 25.6 km/h 52% 0.0 mm
12:32 24.1 °C 14.2 °C 1014.1 hPa NW 13.4 km/h 21.9 km/h 54% 0.0 mm
12:37 24.0 °C 14.1 °C 1013.8 hPa WNW 7.2 km/h 21.9 km/h 54% 0.0 mm
12:42 24.0 °C 14.7 °C 1013.8 hPa West 12.2 km/h 20.9 km/h 56% 0.0 mm
12:47 24.4 °C 15.1 °C 1013.8 hPa WNW 15.8 km/h 20.9 km/h 56% 0.0 mm
12:52 23.9 °C 15.2 °C 1013.8 hPa WNW 7.2 km/h 21.9 km/h 58% 0.0 mm
12:55 24.1 °C 14.8 °C 1013.8 hPa WNW 12.2 km/h 21.9 km/h 56% 0.0 mm
13:00 24.3 °C 14.1 °C 1013.8 hPa WSW 13.4 km/h 21.9 km/h 53% 0.0 mm
13:05 24.2 °C 14.3 °C 1013.4 hPa West 9.7 km/h 19.5 km/h 54% 0.0 mm
13:10 24.5 °C 14.3 °C 1013.4 hPa West 17.2 km/h 21.9 km/h 53% 0.0 mm
13:15 24.1 °C 14.5 °C 1013.4 hPa WNW 11.1 km/h 21.9 km/h 55% 0.0 mm
13:20 24.4 °C 15.1 °C 1013.4 hPa WNW 8.7 km/h 21.9 km/h 56% 0.0 mm
13:25 24.8 °C 14.6 °C 1013.4 hPa WNW 12.2 km/h 17.2 km/h 53% 0.0 mm
13:30 24.5 °C 14.3 °C 1013.8 hPa NW 5.0 km/h 20.9 km/h 53% 0.0 mm
13:35 24.4 °C 14.2 °C 1013.4 hPa WNW 13.4 km/h 21.9 km/h 53% 0.0 mm
13:40 24.7 °C 14.5 °C 1013.4 hPa WNW 9.7 km/h 21.9 km/h 53% 0.0 mm
13:45 24.4 °C 13.9 °C 1013.4 hPa WNW 13.4 km/h 21.9 km/h 52% 0.0 mm
13:50 23.9 °C 14.1 °C 1013.4 hPa NW 12.2 km/h 21.9 km/h 54% 0.0 mm
13:55 24.2 °C 14.3 °C 1013.4 hPa NW 11.1 km/h 21.9 km/h 54% 0.0 mm
14:00 24.4 °C 13.9 °C 1013.4 hPa NW 11.1 km/h 17.2 km/h 52% 0.0 mm
14:05 24.5 °C 14.3 °C 1013.4 hPa WNW 11.1 km/h 20.9 km/h 53% 0.0 mm
14:10 24.5 °C 14.0 °C 1013.4 hPa WNW 12.2 km/h 20.9 km/h 52% 0.0 mm
14:15 24.4 °C 14.2 °C 1013.4 hPa NW 9.7 km/h 19.5 km/h 53% 0.0 mm
14:20 24.1 °C 13.7 °C 1013.4 hPa NW 17.2 km/h 20.9 km/h 52% 0.0 mm
Waitara, Taranaki. New Zealand Historic Data
Compliments of Weather Underground - 2 mb